KGLS/GLS METAR and TAF weather

Enter ICAO airport designator
Station Type Date Time Source
KGLS METAR 2020/09/22 04:52 UTC NOAA

KGLS 220452Z AUTO 11014KT 10SM FEW037 SCT046 OVC070 28/25 A2988 RMK AO2 RAE08 SLP116 P0000 T02830250


Station Type Date Time Source
KGLS Decoded METAR 2020/09/22 04:52 UTC NOAA

SCHOLES FIELD, TX, United States (KGLS) 29-16N 094-52W 6M
Sep 22, 2020 - 12:52 AM EDT / 2020.09.22 0452 UTC
Wind: from the ESE (110 degrees) at 16 MPH (14 KT):0
Visibility: 10 mile(s):0
Sky conditions: overcast
Precipitation last hour: A trace
Temperature: 82.9 F (28.3 C)
Dew Point: 77.0 F (25.0 C)
Relative Humidity: 82%
Pressure (altimeter): 29.88 in. Hg (1011 hPa)
ob: KGLS 220452Z AUTO 11014KT 10SM FEW037 SCT046 OVC070 28/25 A2988 RMK AO2 RAE08 SLP116 P0000 T02830250
cycle: 5

Station Type Date Time Source
KGLS TAF 2020/09/22 01:06 UTC NOAA

TAF
AMD KGLS 220103Z 2201/2224 11018KT 5SM -SHRA BR FEW016 SCT035
FM220200 11021G28KT 5SM -SHRA BKN007 OVC015
FM220500 12021G28KT 6SM SHRA BR OVC015
FM221500 11013KT 2SM SHRA OVC010
FM221800 10011KT 4SM -RA BR OVC015

Example: see airport list